Lake of the Forest, Kansas
Current Conditions -  °F | °C
As of 9:53 AM on Wednesday 22 Oct 2014 (Local Time) from KIXD Reporting Station
Clear Clear  
Wind Chill: 58°   Ceiling: Unl
Heat Index: 58°   Visibility: 10mi
Dew Point: 47°   Wind: 14mph
Humidity: 67%   Direction: 140°SE
Pressure: 30.19"   Gusts: NA
Location:  39.0619°N, 94.8881°W
Report Text: KIXD 221453Z 14012KT 10SM CLR 14/08 A3019 RMK AO2 SLP221 T01440083 51006
Loading
Personal Weather Stations






























Interactive Weather Map
Tropical Storm Tracking
New forecast layout! Learn more

10-Day Weather Forecast

Advertisements
Track Severe Weather on mobile